Esopus, New York
Current Conditions -  °F | °C
As of 4:53 AM on Thursday 23 Oct 2014 (Local Time) from KPOU Reporting Station
Overcast Overcast  
Wind Chill: 50°   Ceiling: 1300
Heat Index: 50°   Visibility: 10mi
Dew Point: 45°   Wind: 15mph
Humidity: 83%   Direction: 10°N
Pressure: 29.76"   Gusts: 28mph
Location:  41.83°N, 73.97°W
Report Text: KPOU 230853Z AUTO 01013G24KT 10SM OVC013 10/07 A2976 RMK AO2 RAB0757E07 SLP075 P0000 60005 T01000072 56014 TSNO
Loading
Personal Weather Stations






























Interactive Weather Map
Tropical Storm Tracking
New forecast layout! Learn more

10-Day Weather Forecast

Advertisements
Track Severe Weather on mobile